Time;durP1;ratioP1;P1;durP2;ratioP2;P2;SDS_P1;SDS_P2;PMS_P1;PMS_P2;Temp;Humidity;BMP_temperature;BMP_pressure;BME280_temperature;BME280_humidity;BME280_pressure;Samples;Min_cycle;Max_cycle;Signal;HPM_P1;HPM_P2
2021/11/01 00:02:10;;;;;;;11.18;5.90;;;;;;;;;;5064325;28;20066;-73
2021/11/01 00:04:37;;;;;;;11.02;6.00;;;;;;;;;;5063942;28;20041;-72
2021/11/01 00:07:03;;;;;;;8.20;6.63;;;;;;;;;;5065573;28;20066;-72
2021/11/01 00:09:29;;;;;;;13.38;9.07;;;;;;;;;;5065150;28;20480;-72
2021/11/01 00:11:56;;;;;;;7.72;6.43;;;;;;;;;;5065181;28;20060;-73
2021/11/01 00:14:22;;;;;;;6.07;5.47;;;;;;;;;;5046141;28;20057;-72
2021/11/01 00:16:49;;;;;;;4.57;4.18;;;;;;;;;;5043887;28;20021;-73
2021/11/01 00:19:15;;;;;;;3.72;3.22;;;;;;;;;;5045435;28;20061;-73
2021/11/01 00:21:41;;;;;;;4.60;2.70;;;;;;;;;;5045173;28;20039;-72
2021/11/01 00:24:07;;;;;;;3.83;2.90;;;;;;;;;;5044147;28;20385;-72
2021/11/01 00:26:34;;;;;;;5.32;3.13;;;;;;;;;;5044539;28;20031;-72
2021/11/01 00:29:03;;;;;;;3.22;2.80;;;;;;;;;;5045188;28;20025;-72
2021/11/01 00:31:29;;;;;;;4.10;3.22;;;;;;;;;;5045367;28;20029;-72
2021/11/01 00:33:56;;;;;;;3.30;2.60;;;;;;;;;;5045443;28;20672;-72
2021/11/01 00:36:22;;;;;;;2.97;2.38;;;;;;;;;;5044779;28;20021;-72
2021/11/01 00:38:49;;;;;;;4.57;2.95;;;;;;;;;;5047021;28;20102;-72
2021/11/01 00:41:16;;;;;;;3.90;2.65;;;;;;;;;;5061298;28;20085;-72
2021/11/01 00:43:42;;;;;;;7.43;2.97;;;;;;;;;;5064844;28;20032;-72
2021/11/01 00:46:08;;;;;;;7.30;2.88;;;;;;;;;;5065550;28;20111;-72
2021/11/01 00:48:34;;;;;;;4.35;2.30;;;;;;;;;;5067016;28;20027;-72
2021/11/01 00:51:01;;;;;;;2.63;1.90;;;;;;;;;;5067269;28;20035;-72
2021/11/01 00:53:32;;;;;;;2.20;1.70;;;;;;;;;;5066944;28;20028;-72
2021/11/01 00:56:00;;;;;;;4.80;1.80;;;;;;;;;;5069141;28;20434;-72
2021/11/01 00:58:27;;;;;;;3.47;2.03;;;;;;;;;;5068644;28;20024;-72
2021/11/01 01:00:53;;;;;;;2.35;1.73;;;;;;;;;;5070212;28;20032;-72
2021/11/01 01:03:20;;;;;;;5.90;2.17;;;;;;;;;;5070118;28;20637;-72
2021/11/01 01:05:47;;;;;;;10.70;2.42;;;;;;;;;;5070113;28;20062;-72
2021/11/01 01:08:14;;;;;;;7.85;2.10;;;;;;;;;;5068603;28;20524;-72
2021/11/01 01:10:41;;;;;;;3.92;2.60;;;;;;;;;;5069530;28;20041;-72
2021/11/01 01:13:07;;;;;;;4.78;2.60;;;;;;;;;;5070211;28;20020;-72
2021/11/01 01:15:44;;;;;;;5.00;2.17;;;;;;;;;;5066783;28;20029;-72
2021/11/01 01:18:18;;;;;;;6.03;2.70;;;;;;;;;;5066654;28;20041;-72
2021/11/01 01:20:44;;;;;;;4.85;2.28;;;;;;;;;;5066512;28;20020;-72
2021/11/01 01:23:11;;;;;;;8.30;2.33;;;;;;;;;;5065020;28;20115;-72
2021/11/01 01:25:45;;;;;;;4.85;2.25;;;;;;;;;;5071043;28;20023;-72
2021/11/01 01:28:12;;;;;;;4.00;2.00;;;;;;;;;;5073978;28;20021;-72
2021/11/01 01:30:39;;;;;;;3.70;2.05;;;;;;;;;;5073888;28;20024;-72
2021/11/01 01:33:08;;;;;;;3.13;1.75;;;;;;;;;;5074051;28;20066;-72
2021/11/01 01:35:36;;;;;;;6.03;1.88;;;;;;;;;;5072303;28;20035;-72
2021/11/01 01:38:02;;;;;;;2.63;1.70;;;;;;;;;;5073603;28;20056;-72
2021/11/01 01:40:29;;;;;;;3.22;1.90;;;;;;;;;;5073814;28;20420;-72
2021/11/01 01:42:56;;;;;;;3.92;1.70;;;;;;;;;;5073796;28;20025;-72
2021/11/01 01:45:22;;;;;;;2.45;1.60;;;;;;;;;;5073535;28;20063;-73
2021/11/01 01:47:48;;;;;;;4.80;2.00;;;;;;;;;;5072171;28;20030;-72
2021/11/01 01:50:15;;;;;;;3.35;1.73;;;;;;;;;;5073213;28;20035;-72
2021/11/01 01:52:42;;;;;;;3.92;1.42;;;;;;;;;;5073096;28;20027;-72
2021/11/01 01:55:09;;;;;;;4.28;1.40;;;;;;;;;;5071941;28;20143;-72
2021/11/01 01:57:36;;;;;;;6.10;1.70;;;;;;;;;;5073279;28;20049;-72
2021/11/01 02:00:04;;;;;;;5.57;1.52;;;;;;;;;;5073560;28;20024;-72
2021/11/01 02:02:31;;;;;;;7.30;2.75;;;;;;;;;;5073297;28;20028;-72
2021/11/01 02:04:57;;;;;;;4.25;2.00;;;;;;;;;;5073044;28;20115;-72
2021/11/01 02:07:33;;;;;;;11.73;1.90;;;;;;;;;;5073250;28;20024;-72
2021/11/01 02:09:59;;;;;;;4.97;2.00;;;;;;;;;;5072006;28;20024;-72
2021/11/01 02:12:36;;;;;;;2.60;1.38;;;;;;;;;;5073205;28;20070;-72
2021/11/01 02:15:12;;;;;;;3.90;1.50;;;;;;;;;;5072743;28;20024;-72
2021/11/01 02:17:39;;;;;;;4.97;1.60;;;;;;;;;;5073239;28;20055;-73
2021/11/01 02:20:08;;;;;;;5.28;2.20;;;;;;;;;;5073222;28;20052;-72
2021/11/01 02:22:49;;;;;;;4.00;1.50;;;;;;;;;;5071435;28;20052;-72
2021/11/01 02:25:27;;;;;;;1.50;1.23;;;;;;;;;;5072823;28;20520;-72
2021/11/01 02:27:54;;;;;;;5.57;1.50;;;;;;;;;;5072835;28;20055;-72
2021/11/01 02:30:20;;;;;;;2.63;1.33;;;;;;;;;;5072942;28;20683;-72
2021/11/01 02:32:46;;;;;;;2.58;1.10;;;;;;;;;;5071721;28;20131;-72
2021/11/01 02:35:13;;;;;;;2.50;1.30;;;;;;;;;;5072729;28;20023;-72
2021/11/01 02:37:40;;;;;;;2.45;1.10;;;;;;;;;;5071422;28;20100;-72
2021/11/01 02:40:07;;;;;;;1.92;1.20;;;;;;;;;;5072742;28;20028;-72
2021/11/01 02:42:34;;;;;;;2.67;1.30;;;;;;;;;;5071074;28;20024;-72
2021/11/01 02:45:01;;;;;;;5.47;1.30;;;;;;;;;;5054608;28;20404;-72
2021/11/01 02:47:27;;;;;;;3.35;1.25;;;;;;;;;;5072438;28;20021;-72
2021/11/01 02:49:55;;;;;;;1.40;1.23;;;;;;;;;;5072664;28;20100;-72
2021/11/01 02:52:21;;;;;;;2.85;1.38;;;;;;;;;;5072604;28;20028;-72
2021/11/01 02:54:48;;;;;;;1.33;1.00;;;;;;;;;;5072237;28;20082;-72
2021/11/01 02:57:14;;;;;;;1.63;1.08;;;;;;;;;;5070604;28;20048;-72
2021/11/01 02:59:41;;;;;;;2.45;1.20;;;;;;;;;;5072385;28;20039;-72
2021/11/01 03:02:07;;;;;;;1.30;1.10;;;;;;;;;;5072177;28;20476;-72
2021/11/01 03:04:33;;;;;;;2.75;1.17;;;;;;;;;;5072282;28;20044;-72
2021/11/01 03:07:00;;;;;;;2.75;1.40;;;;;;;;;;5070747;28;20465;-72
2021/11/01 03:09:29;;;;;;;2.75;1.27;;;;;;;;;;5071751;28;20025;-72
2021/11/01 03:11:57;;;;;;;1.50;1.10;;;;;;;;;;5072340;28;20036;-72
2021/11/01 03:14:27;;;;;;;1.42;1.20;;;;;;;;;;5072134;28;20032;-72
2021/11/01 03:16:54;;;;;;;1.98;1.20;;;;;;;;;;5071680;28;20028;-72
2021/11/01 03:19:23;;;;;;;4.38;1.33;;;;;;;;;;5070518;28;20040;-72
2021/11/01 03:21:49;;;;;;;1.90;1.30;;;;;;;;;;5071817;28;20086;-72
2021/11/01 03:24:16;;;;;;;2.00;1.50;;;;;;;;;;5071866;28;20020;-72
2021/11/01 03:26:44;;;;;;;2.00;1.30;;;;;;;;;;5070397;28;20024;-72
2021/11/01 03:29:10;;;;;;;2.58;1.27;;;;;;;;;;5071851;28;20024;-72
2021/11/01 03:31:40;;;;;;;3.15;1.30;;;;;;;;;;5069151;28;20039;-73
2021/11/01 03:34:07;;;;;;;1.88;1.40;;;;;;;;;;5068615;28;20034;-72
2021/11/01 03:36:34;;;;;;;1.65;1.20;;;;;;;;;;5070119;28;20052;-72
2021/11/01 03:39:02;;;;;;;2.78;1.23;;;;;;;;;;5071372;28;20180;-72
2021/11/01 03:41:30;;;;;;;2.35;1.25;;;;;;;;;;5070200;28;20028;-72
2021/11/01 03:44:05;;;;;;;5.43;1.80;;;;;;;;;;5071479;28;20020;-72
2021/11/01 03:49:18;;;;;;;3.45;1.40;;;;;;;;;;5071409;28;20047;-72
2021/11/01 03:54:29;;;;;;;4.70;1.45;;;;;;;;;;5071391;28;20044;-72
2021/11/01 03:56:55;;;;;;;4.50;1.52;;;;;;;;;;5069743;28;20041;-72
2021/11/01 03:59:22;;;;;;;2.72;1.50;;;;;;;;;;5071068;28;20405;-72
2021/11/01 04:01:48;;;;;;;2.67;1.50;;;;;;;;;;5067051;28;20050;-72
2021/11/01 04:04:15;;;;;;;3.30;1.45;;;;;;;;;;5066167;28;20108;-72
2021/11/01 04:06:42;;;;;;;4.75;1.70;;;;;;;;;;5066099;28;20033;-72
2021/11/01 04:09:10;;;;;;;4.25;1.40;;;;;;;;;;5064868;28;20035;-72
2021/11/01 04:11:43;;;;;;;1.98;1.48;;;;;;;;;;5063569;28;20467;-73
2021/11/01 04:14:15;;;;;;;1.63;1.25;;;;;;;;;;5062758;28;20411;-72
2021/11/01 04:16:44;;;;;;;5.57;1.60;;;;;;;;;;5062478;28;20028;-72
2021/11/01 04:21:43;;;;;;;3.33;1.65;;;;;;;;;;5062398;28;20071;-72
2021/11/01 04:24:09;;;;;;;1.90;1.40;;;;;;;;;;5064687;28;20483;-72
2021/11/01 04:26:36;;;;;;;2.55;1.25;;;;;;;;;;5065580;28;20081;-72
2021/11/01 04:29:06;;;;;;;3.30;1.58;;;;;;;;;;5065798;28;20036;-72
2021/11/01 04:31:33;;;;;;;2.30;1.40;;;;;;;;;;5064080;28;20111;-73
2021/11/01 04:34:11;;;;;;;4.63;1.52;;;;;;;;;;5065926;28;20128;-72
2021/11/01 04:36:38;;;;;;;3.03;1.48;;;;;;;;;;5065582;28;20025;-72
2021/11/01 04:39:35;;;;;;;3.42;1.48;;;;;;;;;;5065417;28;20629;-72
2021/11/01 04:53:04;;;;;;;2.60;1.52;;;;;;;;;;5032355;28;20036;-72
2021/11/01 04:55:32;;;;;;;2.80;1.50;;;;;;;;;;5063784;28;20104;-72
2021/11/01 04:57:58;;;;;;;1.90;1.60;;;;;;;;;;5065082;28;20388;-72
2021/11/01 05:00:25;;;;;;;3.33;1.60;;;;;;;;;;5064841;28;20025;-72
2021/11/01 05:03:39;;;;;;;3.33;1.88;;;;;;;;;;5064956;28;20473;-72
2021/11/01 05:05:38;;;;;;;2.90;1.50;;;;;;;;;;5050535;28;20036;-72
2021/11/01 05:08:06;;;;;;;3.13;1.83;;;;;;;;;;5063632;28;20024;-72
2021/11/01 05:10:40;;;;;;;4.03;1.42;;;;;;;;;;5065187;28;20025;-72
2021/11/01 05:13:17;;;;;;;2.17;1.67;;;;;;;;;;5065091;28;20028;-73
2021/11/01 05:18:22;;;;;;;3.15;1.60;;;;;;;;;;5065060;28;20561;-72
2021/11/01 05:21:21;;;;;;;3.50;1.27;;;;;;;;;;5064848;28;20472;-72
2021/11/01 05:23:40;;;;;;;6.20;1.83;;;;;;;;;;5064851;28;20115;-73
2021/11/01 05:26:15;;;;;;;6.80;2.00;;;;;;;;;;5065161;28;20041;-72
2021/11/01 05:28:50;;;;;;;6.72;2.08;;;;;;;;;;5048405;28;20723;-72
2021/11/01 05:31:20;;;;;;;6.05;2.20;;;;;;;;;;5064981;28;20036;-72
2021/11/01 05:34:02;;;;;;;3.28;1.70;;;;;;;;;;5063593;28;20027;-72
2021/11/01 05:36:28;;;;;;;6.82;2.22;;;;;;;;;;5065199;28;20391;-72
2021/11/01 05:38:55;;;;;;;5.20;1.88;;;;;;;;;;5065009;28;20033;-72
2021/11/01 05:41:21;;;;;;;3.85;2.33;;;;;;;;;;5064923;28;20229;-72
2021/11/01 05:43:48;;;;;;;5.45;2.22;;;;;;;;;;5063458;28;20068;-72
2021/11/01 05:46:15;;;;;;;3.67;1.67;;;;;;;;;;5064896;28;20017;-72
2021/11/01 05:48:49;;;;;;;6.97;2.33;;;;;;;;;;5064954;28;20032;-72
2021/11/01 05:51:17;;;;;;;5.05;2.00;;;;;;;;;;5063247;28;20045;-72
2021/11/01 05:53:49;;;;;;;9.07;2.65;;;;;;;;;;5064530;28;20020;-72
2021/11/01 05:56:28;;;;;;;5.50;2.35;;;;;;;;;;5064549;28;20484;-72
2021/11/01 06:04:04;;;;;;;6.25;1.98;;;;;;;;;;5064555;28;20033;-72
2021/11/01 06:14:30;;;;;;;5.32;2.55;;;;;;;;;;5068457;28;20028;-72
2021/11/01 06:16:56;;;;;;;8.85;2.20;;;;;;;;;;5068209;28;20557;-72
2021/11/01 06:19:22;;;;;;;6.95;2.50;;;;;;;;;;5068040;28;20032;-72
2021/11/01 06:21:49;;;;;;;5.22;2.03;;;;;;;;;;5067996;28;20494;-72
2021/11/01 06:25:05;;;;;;;8.35;2.30;;;;;;;;;;5066724;28;20059;-73
2021/11/01 06:27:03;;;;;;;6.15;2.30;;;;;;;;;;5053515;28;20067;-72
2021/11/01 06:29:33;;;;;;;5.00;2.38;;;;;;;;;;5068152;28;20028;-72
2021/11/01 06:32:13;;;;;;;6.38;2.45;;;;;;;;;;5068478;28;20028;-73
2021/11/01 06:39:00;;;;;;;5.40;2.25;;;;;;;;;;5066589;28;20043;-72
2021/11/01 06:45:35;;;;;;;8.48;2.22;;;;;;;;;;5066511;28;20064;-72
2021/11/01 06:56:57;;;;;;;4.82;2.08;;;;;;;;;;5060590;28;20098;-72
2021/11/01 07:15:46;;;;;;;4.80;2.70;;;;;;;;;;5065774;28;20063;-72
2021/11/01 07:18:28;;;;;;;4.53;2.38;;;;;;;;;;5067189;28;20025;-72
2021/11/01 07:21:18;;;;;;;3.83;2.22;;;;;;;;;;5067082;28;20020;-72
2021/11/01 08:40:41;;;;;;;9.35;2.80;;;;;;;;;;5061336;28;20106;-73
2021/11/01 09:04:14;;;;;;;12.32;3.67;;;;;;;;;;5060171;28;20059;-73
2021/11/01 09:25:16;;;;;;;8.63;2.83;;;;;;;;;;5059649;28;20589;-73
2021/11/01 09:27:52;;;;;;;11.55;3.42;;;;;;;;;;5060217;28;20043;-73
2021/11/01 09:30:36;;;;;;;11.30;3.38;;;;;;;;;;5061425;28;20123;-73
2021/11/01 09:38:28;;;;;;;10.38;2.95;;;;;;;;;;5059604;28;20502;-73
2021/11/01 09:43:24;;;;;;;7.65;2.92;;;;;;;;;;5059602;28;20594;-73
2021/11/01 09:45:57;;;;;;;8.95;2.50;;;;;;;;;;5059656;28;20078;-73
2021/11/01 09:48:24;;;;;;;6.63;2.30;;;;;;;;;;5063895;28;20389;-73
2021/11/01 09:50:51;;;;;;;9.38;2.80;;;;;;;;;;5063527;28;20020;-73
2021/11/01 09:53:23;;;;;;;11.55;3.05;;;;;;;;;;5062420;28;20028;-73
2021/11/01 09:56:07;;;;;;;;;;;;;;;;;;5065303;28;20084;-73
2021/11/01 10:01:21;;;;;;;6.25;2.20;;;;;;;;;;5064625;28;20040;-73
2021/11/01 10:03:49;;;;;;;7.53;2.47;;;;;;;;;;5063103;28;20032;-73
2021/11/01 10:06:19;;;;;;;10.45;2.78;;;;;;;;;;5064392;28;20144;-72
2021/11/01 10:08:52;;;;;;;5.28;1.95;;;;;;;;;;5064090;28;20074;-73
2021/11/01 10:11:20;;;;;;;7.00;2.50;;;;;;;;;;5063647;28;20433;-73
2021/11/01 10:13:47;;;;;;;7.75;2.45;;;;;;;;;;5063670;28;20072;-73
2021/11/01 10:19:11;;;;;;;10.15;2.80;;;;;;;;;;5062294;28;20499;-73
2021/11/01 10:21:37;;;;;;;5.72;3.00;;;;;;;;;;5063451;28;20016;-73
2021/11/01 10:24:03;;;;;;;8.25;2.35;;;;;;;;;;5062570;28;20827;-73
2021/11/01 10:26:30;;;;;;;7.28;2.40;;;;;;;;;;5063553;28;20009;-73
2021/11/01 10:29:06;;;;;;;5.22;2.28;;;;;;;;;;5062890;28;20070;-73
2021/11/01 10:31:42;;;;;;;9.68;2.53;;;;;;;;;;5064873;28;20105;-73
2021/11/01 10:34:10;;;;;;;7.90;2.78;;;;;;;;;;5046269;28;20074;-73
2021/11/01 10:36:38;;;;;;;5.82;2.42;;;;;;;;;;5064393;28;20025;-73
2021/11/01 10:39:07;;;;;;;6.68;2.70;;;;;;;;;;5062405;28;20021;-73
2021/11/01 10:44:57;;;;;;;8.68;2.50;;;;;;;;;;5064367;28;20582;-73
2021/11/01 11:14:46;;;;;;;9.88;2.40;;;;;;;;;;5061518;28;20020;-73
2021/11/01 11:20:45;;;;;;;8.93;2.40;;;;;;;;;;5061889;28;20063;-73
2021/11/01 11:29:02;;;;;;;11.18;2.85;;;;;;;;;;5063410;28;20028;-72
2021/11/01 11:31:44;;;;;;;10.38;2.90;;;;;;;;;;5063031;28;20598;-73
2021/11/01 11:47:43;;;;;;;6.75;1.90;;;;;;;;;;5063061;28;20024;-73
2021/11/01 11:50:13;;;;;;;7.95;2.20;;;;;;;;;;5063043;28;20028;-73
2021/11/01 11:52:39;;;;;;;8.45;2.70;;;;;;;;;;5063274;28;20051;-73
2021/11/01 11:55:14;;;;;;;7.15;2.97;;;;;;;;;;5061203;28;20484;-73
2021/11/01 11:57:40;;;;;;;4.95;1.92;;;;;;;;;;5065123;28;20056;-73
2021/11/01 12:00:10;;;;;;;10.90;2.40;;;;;;;;;;5062507;28;20089;-73
2021/11/01 12:02:46;;;;;;;9.00;2.78;;;;;;;;;;5043682;28;20650;-73
2021/11/01 12:05:27;;;;;;;8.38;2.17;;;;;;;;;;5062299;28;20135;-73
2021/11/01 12:08:03;;;;;;;8.17;2.50;;;;;;;;;;5062921;28;20035;-73
2021/11/01 12:13:12;;;;;;;5.65;2.33;;;;;;;;;;5060806;28;20028;-73
2021/11/01 12:18:33;;;;;;;7.13;2.20;;;;;;;;;;5062362;28;20080;-73
2021/11/01 12:21:00;;;;;;;10.80;3.13;;;;;;;;;;5062483;28;20112;-73
2021/11/01 12:23:36;;;;;;;10.50;2.53;;;;;;;;;;5060970;28;20025;-73
2021/11/01 12:26:13;;;;;;;7.00;2.20;;;;;;;;;;5062236;28;20111;-72
2021/11/01 12:28:40;;;;;;;9.90;2.70;;;;;;;;;;5062478;28;20666;-73
2021/11/01 12:31:08;;;;;;;8.32;2.97;;;;;;;;;;5061589;28;20059;-73
2021/11/01 12:33:40;;;;;;;9.30;2.63;;;;;;;;;;5062664;28;20028;-73
2021/11/01 12:36:08;;;;;;;8.30;3.17;;;;;;;;;;5062260;28;20035;-72
2021/11/01 12:38:42;;;;;;;8.65;3.25;;;;;;;;;;5062437;28;20102;-73
2021/11/01 12:41:23;;;;;;;12.95;2.88;;;;;;;;;;5060309;28;20561;-73
2021/11/01 12:57:46;;;;;;;10.95;3.08;;;;;;;;;;5061640;28;20157;-73
2021/11/01 13:00:13;;;;;;;7.68;2.85;;;;;;;;;;5061117;28;20044;-73
2021/11/01 13:02:42;;;;;;;6.63;2.88;;;;;;;;;;5063031;28;20051;-73
2021/11/01 13:05:14;;;;;;;9.30;2.90;;;;;;;;;;5062339;28;20017;-72
2021/11/01 13:10:42;;;;;;;12.95;3.22;;;;;;;;;;5060413;28;20025;-71
2021/11/01 13:19:07;;;;;;;6.80;2.85;;;;;;;;;;5053893;28;20048;-71
2021/11/01 13:21:38;;;;;;;10.80;2.95;;;;;;;;;;5059351;28;20025;-73
2021/11/01 13:24:09;;;;;;;7.43;2.78;;;;;;;;;;5047709;28;20053;-72
2021/11/01 13:37:31;;;;;;;7.50;2.60;;;;;;;;;;5041344;28;20428;-75
2021/11/01 13:40:02;;;;;;;11.18;2.92;;;;;;;;;;5041964;28;20040;-73
2021/11/01 13:42:28;;;;;;;9.27;2.97;;;;;;;;;;5047007;28;20021;-73
2021/11/01 13:45:04;;;;;;;11.68;2.75;;;;;;;;;;5059301;28;20562;-72
2021/11/01 13:47:39;;;;;;;12.90;3.58;;;;;;;;;;5055466;28;20063;-72
2021/11/01 13:50:06;;;;;;;7.25;2.72;;;;;;;;;;5041979;28;20036;-72
2021/11/01 13:55:32;;;;;;;9.30;3.33;;;;;;;;;;5059396;28;20035;-72
2021/11/01 15:21:50;;;;;;;7.45;2.67;;;;;;;;;;4965333;28;20513;-73
2021/11/01 15:38:03;;;;;;;5.93;2.22;;;;;;;;;;4964810;28;20027;-74
2021/11/01 15:40:12;;;;;;;6.40;2.85;;;;;;;;;;4960610;28;20553;-74
2021/11/01 16:18:06;;;;;;;7.93;1.90;;;;;;;;;;4962460;28;20031;-73
2021/11/01 16:20:33;;;;;;;4.65;1.90;;;;;;;;;;4958922;28;20683;-72
2021/11/01 16:25:44;;;;;;;4.57;1.92;;;;;;;;;;4945333;29;20666;-74
2021/11/01 16:28:13;;;;;;;5.07;2.03;;;;;;;;;;4944626;28;20034;-73
2021/11/01 16:30:46;;;;;;;4.18;2.03;;;;;;;;;;4943402;28;20031;-73
2021/11/01 16:33:13;;;;;;;6.43;2.55;;;;;;;;;;4951169;28;20561;-73
2021/11/01 16:35:43;;;;;;;6.30;2.42;;;;;;;;;;4963789;28;20502;-73
2021/11/01 16:38:13;;;;;;;8.77;2.97;;;;;;;;;;4963812;28;20121;-73
2021/11/01 16:40:43;;;;;;;7.95;2.88;;;;;;;;;;4963549;28;20046;-72
2021/11/01 16:43:14;;;;;;;6.18;2.83;;;;;;;;;;4962182;28;20036;-73
2021/11/01 16:45:41;;;;;;;7.93;3.05;;;;;;;;;;4963241;28;20034;-73
2021/11/01 16:48:08;;;;;;;9.10;2.75;;;;;;;;;;4963221;28;20038;-73
2021/11/01 16:50:34;;;;;;;11.00;3.90;;;;;;;;;;4962645;28;20089;-73
2021/11/01 16:53:01;;;;;;;6.07;2.50;;;;;;;;;;4963451;28;20218;-73
2021/11/01 16:55:32;;;;;;;5.75;2.70;;;;;;;;;;4963318;28;20031;-73
2021/11/01 16:58:02;;;;;;;12.35;2.88;;;;;;;;;;4961581;28;20031;-73
2021/11/01 17:00:52;;;;;;;7.43;2.83;;;;;;;;;;4963118;28;20521;-73
2021/11/01 17:22:37;;;;;;;6.57;2.80;;;;;;;;;;4962672;28;20526;-72
2021/11/01 17:25:08;;;;;;;7.95;2.88;;;;;;;;;;4962091;28;20022;-73
2021/11/01 17:28:09;;;;;;;13.23;3.60;;;;;;;;;;4962832;28;20493;-74
2021/11/01 17:30:54;;;;;;;6.68;2.88;;;;;;;;;;4960594;28;20038;-73
2021/11/01 18:41:04;;;;;;;12.77;3.30;;;;;;;;;;4964035;28;20524;-73
2021/11/01 18:43:20;;;;;;;12.07;3.30;;;;;;;;;;4959859;28;20109;-73
2021/11/01 18:51:09;;;;;;;8.40;2.60;;;;;;;;;;4945577;28;20035;-73
2021/11/01 18:53:35;;;;;;;10.18;2.80;;;;;;;;;;4965573;28;20058;-73
2021/11/01 18:56:03;;;;;;;8.07;2.47;;;;;;;;;;4965451;28;20391;-73
2021/11/01 18:58:31;;;;;;;9.00;2.50;;;;;;;;;;4965769;28;20129;-73
2021/11/01 19:00:58;;;;;;;8.98;3.25;;;;;;;;;;4964757;28;20517;-73
2021/11/01 19:03:27;;;;;;;9.02;3.15;;;;;;;;;;4963985;28;20133;-73
2021/11/01 19:09:10;;;;;;;16.08;3.45;;;;;;;;;;4964994;28;20054;-73
2021/11/01 20:14:32;;;;;;;8.57;2.40;;;;;;;;;;4962295;28;20057;-73
2021/11/01 21:26:45;;;;;;;15.52;3.72;;;;;;;;;;4963191;28;20283;-74
2021/11/01 21:29:11;;;;;;;13.07;3.38;;;;;;;;;;4961459;28;20751;-74
2021/11/01 21:31:38;;;;;;;13.98;3.05;;;;;;;;;;4962775;28;20034;-73
2021/11/01 21:34:07;;;;;;;10.57;3.10;;;;;;;;;;4955055;28;20156;-74
2021/11/01 21:36:33;;;;;;;8.52;2.72;;;;;;;;;;4963115;28;20097;-74
2021/11/01 21:39:00;;;;;;;15.48;4.00;;;;;;;;;;4963495;28;20102;-72
2021/11/01 21:41:27;;;;;;;9.68;2.40;;;;;;;;;;4962874;28;20062;-73
2021/11/01 21:43:55;;;;;;;9.02;2.70;;;;;;;;;;4968032;28;20053;-74
2021/11/01 21:46:21;;;;;;;10.38;3.20;;;;;;;;;;4985811;28;20634;-74
2021/11/01 21:48:47;;;;;;;11.07;2.53;;;;;;;;;;4984697;28;20514;-74
2021/11/01 21:51:17;;;;;;;9.75;2.65;;;;;;;;;;4986296;28;20524;-73
2021/11/01 21:54:02;;;;;;;8.63;2.28;;;;;;;;;;4985478;28;20121;-74
2021/11/01 21:56:31;;;;;;;10.95;2.53;;;;;;;;;;4984533;28;20110;-73
2021/11/01 22:16:45;;;;;;;10.63;2.20;;;;;;;;;;4965545;28;20105;-74
2021/11/01 22:21:47;;;;;;;9.48;2.42;;;;;;;;;;4963890;28;20122;-73
2021/11/01 22:45:30;;;;;;;8.13;2.25;;;;;;;;;;4965465;28;20058;-74
2021/11/01 22:56:12;;;;;;;6.40;1.55;;;;;;;;;;4964964;28;20395;-74
2021/11/01 22:58:41;;;;;;;8.70;1.60;;;;;;;;;;4965190;28;20027;-74
2021/11/01 23:01:25;;;;;;;3.38;1.40;;;;;;;;;;4964727;28;20045;-74
2021/11/01 23:33:50;;;;;;;11.68;2.63;;;;;;;;;;4961928;28;20081;-73
2021/11/01 23:36:16;;;;;;;7.75;2.20;;;;;;;;;;4961484;28;20031;-73
2021/11/01 23:38:42;;;;;;;8.57;2.45;;;;;;;;;;4962437;28;20046;-72
2021/11/01 23:41:08;;;;;;;12.05;2.60;;;;;;;;;;4962440;28;20162;-72
2021/11/01 23:43:35;;;;;;;8.27;2.17;;;;;;;;;;4961899;28;20031;-73
2021/11/01 23:46:01;;;;;;;6.05;1.77;;;;;;;;;;4962292;28;20050;-74
2021/11/01 23:48:28;;;;;;;6.57;1.80;;;;;;;;;;4961782;28;20092;-73
2021/11/01 23:50:55;;;;;;;8.68;1.90;;;;;;;;;;4960752;28;20023;-72
2021/11/01 23:56:07;;;;;;;9.57;1.88;;;;;;;;;;4962038;28;20290;-72
2021/11/01 23:58:33;;;;;;;8.30;1.73;;;;;;;;;;4962160;28;20037;-72
